Time;durP1;ratioP1;P1;durP2;ratioP2;P2;SDS_P1;SDS_P2;PMS_P1;PMS_P2;Temp;Humidity;BMP_temperature;BMP_pressure;BME280_temperature;BME280_humidity;BME280_pressure;Samples;Min_cycle;Max_cycle;Signal;HPM_P1;HPM_P2
2023/07/03 00:11:16;;;;;;;7.20;2.53;;;;;;;;;;4969276;28;20236;-71
2023/07/03 00:21:58;;;;;;;6.40;2.40;;;;;;;;;;5008333;28;20590;-69
2023/07/03 00:32:51;;;;;;;7.37;2.70;;;;;;;;;;4986066;28;20587;-69
2023/07/03 00:47:15;;;;;;;9.53;3.37;;;;;;;;;;4908741;29;20206;-68
2023/07/03 01:37:13;;;;;;;6.30;2.70;;;;;;;;;;4934070;29;20226;-69
2023/07/03 01:43:39;;;;;;;11.00;3.27;;;;;;;;;;4952708;29;20177;-69
2023/07/03 01:54:29;;;;;;;9.07;2.97;;;;;;;;;;4949977;29;20221;-69
2023/07/03 02:09:16;;;;;;;10.53;3.30;;;;;;;;;;4950313;29;20276;-68
2023/07/03 02:15:45;;;;;;;8.57;2.93;;;;;;;;;;4969261;28;20223;-69
2023/07/03 02:22:11;;;;;;;5.13;2.70;;;;;;;;;;4971666;28;20259;-67
2023/07/03 02:28:40;;;;;;;6.27;3.00;;;;;;;;;;4971290;28;20211;-69
2023/07/03 02:39:21;;;;;;;5.97;2.90;;;;;;;;;;4988909;28;20300;-70
2023/07/03 02:45:48;;;;;;;21.23;4.50;;;;;;;;;;5007592;28;20234;-71
2023/07/03 02:52:17;;;;;;;5.67;3.10;;;;;;;;;;5008055;28;20773;-70
2023/07/03 02:58:44;;;;;;;10.10;3.50;;;;;;;;;;5007427;28;20276;-71
2023/07/03 03:05:16;;;;;;;8.77;3.63;;;;;;;;;;5000518;28;21010;-72
2023/07/03 03:11:43;;;;;;;9.97;3.60;;;;;;;;;;5006330;28;20346;-70
2023/07/03 03:18:10;;;;;;;6.67;3.10;;;;;;;;;;5008654;28;20268;-69
2023/07/03 03:24:37;;;;;;;6.40;3.30;;;;;;;;;;5008681;28;20187;-71
2023/07/03 03:31:05;;;;;;;10.87;3.97;;;;;;;;;;4970683;28;20231;-66
2023/07/03 03:41:50;;;;;;;9.07;3.33;;;;;;;;;;5005957;28;20171;-68
2023/07/03 03:48:18;;;;;;;6.00;3.47;;;;;;;;;;5007596;28;20254;-67
2023/07/03 03:54:46;;;;;;;9.13;4.10;;;;;;;;;;5006992;28;20215;-66
2023/07/03 04:01:13;;;;;;;8.33;3.67;;;;;;;;;;5005755;28;20271;-68
2023/07/03 04:07:41;;;;;;;8.30;3.50;;;;;;;;;;4987006;28;20987;-66
2023/07/03 04:14:08;;;;;;;8.07;3.67;;;;;;;;;;5006478;28;20246;-65
2023/07/03 04:20:46;;;;;;;10.63;3.60;;;;;;;;;;5001095;28;20336;-66
2023/07/03 04:27:14;;;;;;;6.30;3.63;;;;;;;;;;5006677;28;20299;-67
2023/07/03 04:42:39;;;;;;;11.50;3.40;;;;;;;;;;4952457;28;20191;-66
2023/07/03 04:49:05;;;;;;;7.53;3.20;;;;;;;;;;4946896;28;20269;-69
2023/07/03 04:59:36;;;;;;;7.23;2.93;;;;;;;;;;5003256;28;20271;-69
2023/07/03 05:06:04;;;;;;;9.87;3.10;;;;;;;;;;4985767;28;20187;-66
2023/07/03 05:12:30;;;;;;;7.73;3.73;;;;;;;;;;4967200;28;20209;-67
2023/07/03 05:18:57;;;;;;;6.30;3.10;;;;;;;;;;4986674;28;20239;-69
2023/07/03 05:26:06;;;;;;;6.77;3.07;;;;;;;;;;4986412;28;20195;-69
2023/07/03 05:32:33;;;;;;;11.37;3.10;;;;;;;;;;4947802;28;20217;-73
2023/07/03 05:42:58;;;;;;;9.47;3.47;;;;;;;;;;5005488;28;20179;-68
2023/07/03 05:49:24;;;;;;;6.40;3.00;;;;;;;;;;5005091;28;20258;-70
2023/07/03 05:55:58;;;;;;;7.03;2.80;;;;;;;;;;5005255;28;20179;-70
2023/07/03 06:02:24;;;;;;;8.03;2.93;;;;;;;;;;4985445;28;20246;-70
2023/07/03 06:08:50;;;;;;;8.10;3.23;;;;;;;;;;5004806;28;20298;-71
2023/07/03 06:15:53;;;;;;;7.47;2.60;;;;;;;;;;5008575;28;20191;-67
2023/07/03 06:22:19;;;;;;;5.93;2.47;;;;;;;;;;5010433;28;20182;-67
2023/07/03 06:28:45;;;;;;;8.47;2.50;;;;;;;;;;4995659;28;20218;-68
2023/07/03 06:35:13;;;;;;;4.80;2.40;;;;;;;;;;5010519;28;20182;-68
2023/07/03 06:49:59;;;;;;;6.47;2.67;;;;;;;;;;5010404;28;20311;-67
2023/07/03 06:56:27;;;;;;;5.80;2.77;;;;;;;;;;5010131;28;20726;-67
2023/07/03 07:02:53;;;;;;;9.07;2.77;;;;;;;;;;4982543;28;20776;-67
2023/07/03 07:09:20;;;;;;;10.47;3.03;;;;;;;;;;5002306;28;20246;-67
2023/07/03 07:15:47;;;;;;;7.23;2.97;;;;;;;;;;5009911;28;20280;-68
2023/07/03 07:22:14;;;;;;;6.20;2.80;;;;;;;;;;5008686;28;20310;-68
2023/07/03 07:28:51;;;;;;;7.07;2.73;;;;;;;;;;5009632;28;20709;-67
2023/07/03 07:35:52;;;;;;;6.73;2.77;;;;;;;;;;4926776;29;20278;-68
2023/07/03 07:46:26;;;;;;;5.23;2.47;;;;;;;;;;4910049;29;20687;-68
2023/07/03 07:52:52;;;;;;;8.00;2.93;;;;;;;;;;4910153;29;20296;-68
2023/07/03 07:59:18;;;;;;;8.00;2.93;;;;;;;;;;4909989;29;20177;-68
2023/07/03 08:05:45;;;;;;;7.43;2.70;;;;;;;;;;4950371;29;20229;-68
2023/07/03 08:12:20;;;;;;;8.50;2.80;;;;;;;;;;4950943;29;20201;-68
2023/07/03 08:18:47;;;;;;;7.50;2.67;;;;;;;;;;4950531;29;20692;-68
2023/07/03 08:25:16;;;;;;;6.80;2.90;;;;;;;;;;4950510;29;20291;-68
2023/07/03 08:31:42;;;;;;;7.80;2.83;;;;;;;;;;4950047;29;20221;-68
2023/07/03 08:38:09;;;;;;;8.33;3.13;;;;;;;;;;4950000;29;20205;-68
2023/07/03 08:48:48;;;;;;;10.10;3.13;;;;;;;;;;4988708;28;20267;-68
2023/07/03 08:55:27;;;;;;;5.47;2.70;;;;;;;;;;4988280;28;20664;-68
2023/07/03 09:02:07;;;;;;;8.60;3.00;;;;;;;;;;4988562;28;20219;-68
2023/07/03 09:12:48;;;;;;;6.70;3.30;;;;;;;;;;4988426;28;20216;-68
2023/07/03 09:19:17;;;;;;;5.77;2.60;;;;;;;;;;4987994;28;20642;-69
2023/07/03 09:25:50;;;;;;;11.00;3.30;;;;;;;;;;4987802;28;20175;-68
2023/07/03 09:32:24;;;;;;;11.97;2.70;;;;;;;;;;4988281;28;20223;-67
2023/07/03 09:38:57;;;;;;;12.10;2.93;;;;;;;;;;4988080;28;20208;-67
2023/07/03 09:49:28;;;;;;;8.03;2.87;;;;;;;;;;4991107;28;20311;-67
2023/07/03 09:55:53;;;;;;;6.93;2.83;;;;;;;;;;4991649;28;20176;-67
2023/07/03 10:13:31;;;;;;;8.73;3.17;;;;;;;;;;4929921;29;20182;-68
2023/07/03 10:23:58;;;;;;;7.40;3.00;;;;;;;;;;4969402;28;20188;-67
2023/07/03 10:35:00;;;;;;;9.10;3.53;;;;;;;;;;4968925;28;20241;-67
2023/07/03 10:41:31;;;;;;;6.83;3.20;;;;;;;;;;4990673;28;20739;-67
2023/07/03 10:52:13;;;;;;;8.97;3.90;;;;;;;;;;4990612;28;20706;-67
2023/07/03 10:58:58;;;;;;;8.00;3.10;;;;;;;;;;4990769;28;20291;-66
2023/07/03 11:09:33;;;;;;;7.37;3.43;;;;;;;;;;4911466;29;20226;-67
2023/07/03 11:16:08;;;;;;;8.03;3.47;;;;;;;;;;4989883;28;20180;-68
2023/07/03 11:33:41;;;;;;;7.07;3.50;;;;;;;;;;4929742;29;20259;-67
2023/07/03 11:40:29;;;;;;;7.63;3.50;;;;;;;;;;4948394;29;20160;-67
2023/07/03 11:55:21;;;;;;;8.40;3.70;;;;;;;;;;4853979;29;20279;-67
2023/07/03 12:09:44;;;;;;;10.23;4.17;;;;;;;;;;4907760;29;20254;-67
2023/07/03 12:16:23;;;;;;;8.50;3.80;;;;;;;;;;4966783;28;20655;-68
2023/07/03 12:22:50;;;;;;;8.80;4.03;;;;;;;;;;4959850;28;20216;-68
2023/07/03 12:40:26;;;;;;;8.53;3.67;;;;;;;;;;4948354;28;20192;-68
2023/07/03 12:54:50;;;;;;;10.00;3.60;;;;;;;;;;4988260;28;20987;-68
2023/07/03 13:01:26;;;;;;;7.13;3.60;;;;;;;;;;4977571;28;20179;-68
2023/07/03 13:07:53;;;;;;;12.37;3.83;;;;;;;;;;4990613;28;20180;-68
2023/07/03 13:14:21;;;;;;;5.40;3.43;;;;;;;;;;4973305;28;20192;-68
2023/07/03 13:20:57;;;;;;;9.23;3.67;;;;;;;;;;4989950;28;20239;-68
2023/07/03 13:27:25;;;;;;;7.20;3.70;;;;;;;;;;4969046;28;20192;-72
2023/07/03 13:34:06;;;;;;;9.33;3.87;;;;;;;;;;4969867;28;20791;-68
2023/07/03 13:40:33;;;;;;;6.33;3.07;;;;;;;;;;4988206;28;20247;-68
2023/07/03 13:46:59;;;;;;;6.30;3.90;;;;;;;;;;4988060;28;20252;-70
2023/07/03 13:57:32;;;;;;;9.30;3.53;;;;;;;;;;4982552;28;20232;-68
2023/07/03 14:03:58;;;;;;;8.23;3.60;;;;;;;;;;4973427;28;20216;-69
2023/07/03 14:10:25;;;;;;;7.40;3.03;;;;;;;;;;4976056;28;20300;-70
2023/07/03 14:16:52;;;;;;;8.47;3.63;;;;;;;;;;4999206;28;20182;-69
2023/07/03 14:23:19;;;;;;;8.87;3.87;;;;;;;;;;5010023;28;20737;-70
2023/07/03 14:49:00;;;;;;;9.10;3.27;;;;;;;;;;5007268;28;20218;-69
2023/07/03 14:59:39;;;;;;;8.17;2.60;;;;;;;;;;4990582;28;20353;-68
2023/07/03 15:06:06;;;;;;;7.43;2.93;;;;;;;;;;5005523;28;20543;-68
2023/07/03 15:17:05;;;;;;;7.37;2.57;;;;;;;;;;5009455;28;20254;-68
2023/07/03 15:23:34;;;;;;;6.07;2.67;;;;;;;;;;5029449;28;20209;-67
2023/07/03 15:37:36;;;;;;;5.40;2.80;;;;;;;;;;5006747;28;20206;-67
2023/07/03 15:44:03;;;;;;;6.37;2.50;;;;;;;;;;5016247;28;20872;-69
2023/07/03 15:50:31;;;;;;;7.43;2.77;;;;;;;;;;4989772;28;20250;-63
2023/07/03 16:01:07;;;;;;;5.30;2.20;;;;;;;;;;5010508;28;20349;-60
2023/07/03 16:07:34;;;;;;;6.03;2.37;;;;;;;;;;5028576;28;20237;-60
2023/07/03 16:14:02;;;;;;;6.03;2.20;;;;;;;;;;4997368;28;20191;-60
2023/07/03 16:20:31;;;;;;;6.00;2.40;;;;;;;;;;4988780;28;21004;-60
2023/07/03 16:42:31;;;;;;;5.03;2.50;;;;;;;;;;4968184;28;20181;-60
2023/07/03 16:49:33;;;;;;;5.10;2.77;;;;;;;;;;4948369;28;20664;-60
2023/07/03 17:04:10;;;;;;;4.53;2.27;;;;;;;;;;4946979;28;20212;-59
2023/07/03 17:11:12;;;;;;;8.37;2.83;;;;;;;;;;5004859;28;20294;-59
2023/07/03 17:17:39;;;;;;;6.70;2.33;;;;;;;;;;5017255;28;20185;-68
2023/07/03 17:24:07;;;;;;;9.40;2.50;;;;;;;;;;5027696;28;20297;-69
2023/07/03 17:34:44;;;;;;;5.60;2.50;;;;;;;;;;5009845;28;20182;-69
2023/07/03 17:41:19;;;;;;;5.93;2.40;;;;;;;;;;4948319;28;20227;-74
2023/07/03 17:47:46;;;;;;;5.70;2.60;;;;;;;;;;4987729;28;20235;-71
2023/07/03 17:54:12;;;;;;;8.40;2.90;;;;;;;;;;4991745;28;20300;-73
2023/07/03 18:04:50;;;;;;;6.67;2.60;;;;;;;;;;4987741;28;20168;-70
2023/07/03 18:11:18;;;;;;;9.30;3.60;;;;;;;;;;5014187;28;20245;-70
2023/07/03 18:17:45;;;;;;;8.37;2.87;;;;;;;;;;5003778;28;20194;-72
2023/07/03 18:24:12;;;;;;;10.20;3.00;;;;;;;;;;4991746;28;20245;-68
2023/07/03 18:31:15;;;;;;;7.00;2.73;;;;;;;;;;4941556;29;20229;-68
2023/07/03 18:37:41;;;;;;;5.60;3.20;;;;;;;;;;4949322;29;20181;-68
2023/07/03 18:44:07;;;;;;;6.20;2.73;;;;;;;;;;4968266;28;20588;-68
2023/07/03 18:50:36;;;;;;;11.17;2.80;;;;;;;;;;4970386;28;20222;-69
2023/07/03 18:57:04;;;;;;;10.80;4.10;;;;;;;;;;4965631;28;20828;-69
2023/07/03 19:07:45;;;;;;;8.97;3.00;;;;;;;;;;5008538;28;20207;-69
2023/07/03 19:14:11;;;;;;;8.97;2.83;;;;;;;;;;5009378;28;20187;-67
2023/07/03 19:20:40;;;;;;;8.27;3.10;;;;;;;;;;5013724;28;20190;-73
2023/07/03 19:31:07;;;;;;;7.93;2.90;;;;;;;;;;5002387;28;20235;-70
2023/07/03 19:52:32;;;;;;;10.73;4.50;;;;;;;;;;4978156;28;20588;-73
2023/07/03 19:59:02;;;;;;;9.80;4.57;;;;;;;;;;4970948;28;20265;-72
2023/07/03 20:25:23;;;;;;;7.90;3.40;;;;;;;;;;4890623;29;20230;-69
2023/07/03 20:40:18;;;;;;;8.97;3.10;;;;;;;;;;4852102;29;20699;-69
2023/07/03 20:46:45;;;;;;;8.63;2.90;;;;;;;;;;4903555;29;20616;-71
2023/07/03 20:53:10;;;;;;;9.17;3.43;;;;;;;;;;4927289;29;20242;-72
2023/07/03 20:59:37;;;;;;;8.97;2.63;;;;;;;;;;5012265;28;20696;-70
2023/07/03 21:10:05;;;;;;;8.83;2.90;;;;;;;;;;5007276;28;20210;-68
2023/07/03 21:16:32;;;;;;;9.17;2.90;;;;;;;;;;5027148;28;20193;-68
2023/07/03 21:23:09;;;;;;;6.00;2.50;;;;;;;;;;5023410;28;20231;-68
2023/07/03 21:29:36;;;;;;;8.03;2.43;;;;;;;;;;4995263;28;20296;-68
2023/07/03 21:36:08;;;;;;;5.23;2.20;;;;;;;;;;5001738;28;20182;-68
2023/07/03 21:43:11;;;;;;;8.30;2.57;;;;;;;;;;4992681;28;20734;-68
2023/07/03 21:50:12;;;;;;;6.07;2.40;;;;;;;;;;4949406;28;20244;-68
2023/07/03 21:56:40;;;;;;;4.93;2.10;;;;;;;;;;4978018;28;20915;-68
2023/07/03 22:11:14;;;;;;;8.83;2.60;;;;;;;;;;4969311;28;20188;-68
2023/07/03 22:17:40;;;;;;;5.27;2.63;;;;;;;;;;4985953;28;20729;-68
2023/07/03 22:24:06;;;;;;;8.30;2.60;;;;;;;;;;5010480;28;20264;-68
2023/07/03 22:30:32;;;;;;;5.90;2.20;;;;;;;;;;4991305;28;20219;-68
2023/07/03 22:41:03;;;;;;;5.57;2.70;;;;;;;;;;4970855;28;20608;-68
2023/07/03 22:47:30;;;;;;;5.73;2.70;;;;;;;;;;4980818;28;20684;-68
2023/07/03 22:53:56;;;;;;;5.43;2.40;;;;;;;;;;4990542;28;20171;-68
2023/07/03 23:00:22;;;;;;;11.47;2.90;;;;;;;;;;4990309;28;20188;-68
2023/07/03 23:10:56;;;;;;;5.87;2.83;;;;;;;;;;5019915;28;20283;-68
2023/07/03 23:17:31;;;;;;;7.60;2.83;;;;;;;;;;5015528;28;20185;-68
2023/07/03 23:23:59;;;;;;;6.63;2.83;;;;;;;;;;4989772;28;20263;-68
2023/07/03 23:30:25;;;;;;;5.40;2.43;;;;;;;;;;5025647;28;20269;-68
2023/07/03 23:37:28;;;;;;;6.33;2.60;;;;;;;;;;5025894;28;20709;-68
2023/07/03 23:43:55;;;;;;;5.73;2.70;;;;;;;;;;5028890;28;20189;-69
2023/07/03 23:50:23;;;;;;;6.27;2.83;;;;;;;;;;4989048;28;20335;-68
2023/07/03 23:56:50;;;;;;;9.03;2.80;;;;;;;;;;4990574;28;20244;-68
